sensor_id;sensor_type;location;lat;lon;timestamp;pressure;altitude;pressure_sealevel;temperature;humidity
54554;BME280;40450;55.848;-3.572;2023-07-13T00:02:24;98806.11;;;16.94;71.35
54554;BME280;40450;55.848;-3.572;2023-07-13T00:07:24;98807.40;;;16.98;71.99
54554;BME280;40450;55.848;-3.572;2023-07-13T00:09:54;98807.22;;;16.56;72.91
54554;BME280;40450;55.848;-3.572;2023-07-13T00:12:27;98806.96;;;16.31;74.29
54554;BME280;40450;55.848;-3.572;2023-07-13T00:14:56;98806.96;;;16.67;73.81
54554;BME280;40450;55.848;-3.572;2023-07-13T00:17:25;98805.04;;;16.40;74.19
54554;BME280;40450;55.848;-3.572;2023-07-13T00:19:56;98803.80;;;16.70;72.72
54554;BME280;40450;55.848;-3.572;2023-07-13T00:22:26;98807.05;;;16.34;73.48
54554;BME280;40450;55.848;-3.572;2023-07-13T00:24:56;98813.61;;;16.29;74.29
54554;BME280;40450;55.848;-3.572;2023-07-13T00:27:26;98809.88;;;16.07;75.57
54554;BME280;40450;55.848;-3.572;2023-07-13T00:29:57;98813.99;;;16.50;73.58
54554;BME280;40450;55.848;-3.572;2023-07-13T00:32:27;98815.75;;;16.57;73.40
54554;BME280;40450;55.848;-3.572;2023-07-13T00:34:57;98818.47;;;16.53;74.32
54554;BME280;40450;55.848;-3.572;2023-07-13T00:37:28;98822.98;;;16.39;74.73
54554;BME280;40450;55.848;-3.572;2023-07-13T00:39:58;98816.16;;;16.64;73.03
54554;BME280;40450;55.848;-3.572;2023-07-13T00:42:28;98817.75;;;16.24;74.11
54554;BME280;40450;55.848;-3.572;2023-07-13T00:45:02;98820.33;;;16.80;74.40
54554;BME280;40450;55.848;-3.572;2023-07-13T00:47:29;98818.07;;;16.87;73.39
54554;BME280;40450;55.848;-3.572;2023-07-13T00:50:00;98819.81;;;15.81;75.95
54554;BME280;40450;55.848;-3.572;2023-07-13T00:52:30;98814.98;;;14.89;78.91
54554;BME280;40450;55.848;-3.572;2023-07-13T00:55:00;98816.62;;;15.11;78.40
54554;BME280;40450;55.848;-3.572;2023-07-13T00:57:31;98815.04;;;15.89;76.92
54554;BME280;40450;55.848;-3.572;2023-07-13T01:00:03;98814.13;;;16.48;75.13
54554;BME280;40450;55.848;-3.572;2023-07-13T01:02:32;98812.47;;;16.13;75.60
54554;BME280;40450;55.848;-3.572;2023-07-13T01:07:32;98814.22;;;16.69;74.40
54554;BME280;40450;55.848;-3.572;2023-07-13T01:10:03;98813.16;;;16.70;73.98
54554;BME280;40450;55.848;-3.572;2023-07-13T01:12:33;98811.64;;;16.58;73.90
54554;BME280;40450;55.848;-3.572;2023-07-13T01:15:05;98813.44;;;16.97;72.83
54554;BME280;40450;55.848;-3.572;2023-07-13T01:17:39;98814.42;;;15.93;74.11
54554;BME280;40450;55.848;-3.572;2023-07-13T01:20:06;98821.47;;;16.37;73.97
54554;BME280;40450;55.848;-3.572;2023-07-13T01:22:42;98824.51;;;17.04;72.92
54554;BME280;40450;55.848;-3.572;2023-07-13T01:25:10;98825.42;;;16.84;72.28
54554;BME280;40450;55.848;-3.572;2023-07-13T01:27:49;98828.94;;;15.62;76.14
54554;BME280;40450;55.848;-3.572;2023-07-13T01:30:06;98831.82;;;15.34;77.52
54554;BME280;40450;55.848;-3.572;2023-07-13T01:32:36;98832.35;;;15.44;76.67
54554;BME280;40450;55.848;-3.572;2023-07-13T01:35:06;98832.15;;;15.32;77.55
54554;BME280;40450;55.848;-3.572;2023-07-13T01:37:45;98836.45;;;14.99;78.92
54554;BME280;40450;55.848;-3.572;2023-07-13T01:40:13;98835.82;;;14.66;79.45
54554;BME280;40450;55.848;-3.572;2023-07-13T01:45:09;98836.61;;;15.91;76.70
54554;BME280;40450;55.848;-3.572;2023-07-13T01:47:43;98838.18;;;15.78;77.01
54554;BME280;40450;55.848;-3.572;2023-07-13T01:50:09;98836.43;;;14.76;79.74
54554;BME280;40450;55.848;-3.572;2023-07-13T01:52:39;98835.10;;;14.85;79.51
54554;BME280;40450;55.848;-3.572;2023-07-13T01:55:09;98835.58;;;15.11;79.11
54554;BME280;40450;55.848;-3.572;2023-07-13T01:57:39;98836.24;;;15.43;78.42
54554;BME280;40450;55.848;-3.572;2023-07-13T02:00:14;98834.93;;;15.73;76.90
54554;BME280;40450;55.848;-3.572;2023-07-13T02:02:40;98835.91;;;15.88;76.61
54554;BME280;40450;55.848;-3.572;2023-07-13T02:05:12;98835.01;;;15.90;75.98
54554;BME280;40450;55.848;-3.572;2023-07-13T02:07:42;98834.05;;;16.29;74.95
54554;BME280;40450;55.848;-3.572;2023-07-13T02:10:13;98832.10;;;16.05;74.66
54554;BME280;40450;55.848;-3.572;2023-07-13T02:12:43;98832.86;;;15.88;74.61
54554;BME280;40450;55.848;-3.572;2023-07-13T02:15:13;98833.49;;;16.23;73.87
54554;BME280;40450;55.848;-3.572;2023-07-13T02:17:43;98837.49;;;16.32;73.29
54554;BME280;40450;55.848;-3.572;2023-07-13T02:20:13;98834.77;;;16.61;72.27
54554;BME280;40450;55.848;-3.572;2023-07-13T02:22:43;98835.89;;;16.13;73.13
54554;BME280;40450;55.848;-3.572;2023-07-13T02:25:14;98840.84;;;15.18;75.65
54554;BME280;40450;55.848;-3.572;2023-07-13T02:27:44;98843.84;;;14.21;78.86
54554;BME280;40450;55.848;-3.572;2023-07-13T02:30:14;98844.90;;;13.22;81.89
54554;BME280;40450;55.848;-3.572;2023-07-13T02:32:45;98844.85;;;13.39;81.39
54554;BME280;40450;55.848;-3.572;2023-07-13T02:35:15;98846.31;;;14.22;78.95
54554;BME280;40450;55.848;-3.572;2023-07-13T02:37:46;98842.04;;;14.58;78.01
54554;BME280;40450;55.848;-3.572;2023-07-13T02:40:18;98841.88;;;14.53;77.14
54554;BME280;40450;55.848;-3.572;2023-07-13T02:42:52;98840.27;;;14.41;76.96
54554;BME280;40450;55.848;-3.572;2023-07-13T02:45:17;98845.18;;;13.94;78.27
54554;BME280;40450;55.848;-3.572;2023-07-13T02:47:52;98843.34;;;14.19;77.20
54554;BME280;40450;55.848;-3.572;2023-07-13T02:50:25;98840.20;;;14.62;76.56
54554;BME280;40450;55.848;-3.572;2023-07-13T02:52:47;98848.87;;;13.46;78.77
54554;BME280;40450;55.848;-3.572;2023-07-13T02:55:18;98846.46;;;13.04;80.15
54554;BME280;40450;55.848;-3.572;2023-07-13T02:57:56;98847.56;;;13.19;79.13
54554;BME280;40450;55.848;-3.572;2023-07-13T03:00:27;98847.98;;;13.58;78.54
54554;BME280;40450;55.848;-3.572;2023-07-13T03:02:49;98851.20;;;13.65;78.00
54554;BME280;40450;55.848;-3.572;2023-07-13T03:05:24;98851.61;;;13.96;76.83
54554;BME280;40450;55.848;-3.572;2023-07-13T03:07:55;98850.85;;;13.97;76.54
54554;BME280;40450;55.848;-3.572;2023-07-13T03:10:28;98851.44;;;13.72;77.11
54554;BME280;40450;55.848;-3.572;2023-07-13T03:12:51;98855.32;;;13.44;77.68
54554;BME280;40450;55.848;-3.572;2023-07-13T03:15:26;98857.97;;;13.18;77.92
54554;BME280;40450;55.848;-3.572;2023-07-13T03:17:59;98860.54;;;13.56;77.24
54554;BME280;40450;55.848;-3.572;2023-07-13T03:20:34;98861.24;;;13.12;78.16
54554;BME280;40450;55.848;-3.572;2023-07-13T03:23:00;98862.48;;;12.98;78.85
54554;BME280;40450;55.848;-3.572;2023-07-13T03:25:22;98861.39;;;12.73;79.66
54554;BME280;40450;55.848;-3.572;2023-07-13T03:27:53;98863.24;;;12.67;80.03
54554;BME280;40450;55.848;-3.572;2023-07-13T03:30:23;98863.15;;;12.78;79.87
54554;BME280;40450;55.848;-3.572;2023-07-13T03:32:54;98862.28;;;12.90;79.50
54554;BME280;40450;55.848;-3.572;2023-07-13T03:35:24;98864.32;;;12.81;79.56
54554;BME280;40450;55.848;-3.572;2023-07-13T03:37:54;98869.88;;;11.82;82.28
54554;BME280;40450;55.848;-3.572;2023-07-13T03:40:25;98869.68;;;12.25;81.34
54554;BME280;40450;55.848;-3.572;2023-07-13T03:42:54;98869.39;;;12.30;81.02
54554;BME280;40450;55.848;-3.572;2023-07-13T03:45:25;98868.75;;;12.58;80.08
54554;BME280;40450;55.848;-3.572;2023-07-13T03:47:56;98867.39;;;12.97;79.04
54554;BME280;40450;55.848;-3.572;2023-07-13T03:50:31;98865.69;;;12.92;78.54
54554;BME280;40450;55.848;-3.572;2023-07-13T03:52:56;98865.79;;;12.90;78.69
54554;BME280;40450;55.848;-3.572;2023-07-13T03:55:26;98863.34;;;12.51;79.62
54554;BME280;40450;55.848;-3.572;2023-07-13T03:58:01;98866.46;;;12.18;80.46
54554;BME280;40450;55.848;-3.572;2023-07-13T04:00:27;98865.06;;;12.06;81.08
54554;BME280;40450;55.848;-3.572;2023-07-13T04:02:57;98871.75;;;11.81;81.61
54554;BME280;40450;55.848;-3.572;2023-07-13T04:05:27;98873.48;;;11.33;83.24
54554;BME280;40450;55.848;-3.572;2023-07-13T04:07:58;98873.75;;;11.09;84.05
54554;BME280;40450;55.848;-3.572;2023-07-13T04:10:28;98876.60;;;10.81;85.18
54554;BME280;40450;55.848;-3.572;2023-07-13T04:12:58;98876.10;;;10.90;85.31
54554;BME280;40450;55.848;-3.572;2023-07-13T04:15:32;98880.73;;;10.23;87.50
54554;BME280;40450;55.848;-3.572;2023-07-13T04:17:59;98880.14;;;10.10;88.23
54554;BME280;40450;55.848;-3.572;2023-07-13T04:20:30;98878.03;;;10.09;88.75
54554;BME280;40450;55.848;-3.572;2023-07-13T04:23:00;98884.72;;;9.74;90.36
54554;BME280;40450;55.848;-3.572;2023-07-13T04:25:30;98888.41;;;9.61;90.58
54554;BME280;40450;55.848;-3.572;2023-07-13T04:28:01;98890.22;;;9.85;90.23
54554;BME280;40450;55.848;-3.572;2023-07-13T04:30:33;98887.18;;;10.16;89.60
54554;BME280;40450;55.848;-3.572;2023-07-13T04:33:01;98887.57;;;10.03;90.29
54554;BME280;40450;55.848;-3.572;2023-07-13T04:35:32;98896.92;;;9.64;91.25
54554;BME280;40450;55.848;-3.572;2023-07-13T04:38:03;98893.66;;;10.04;90.68
54554;BME280;40450;55.848;-3.572;2023-07-13T04:40:33;98890.02;;;10.58;89.39
54554;BME280;40450;55.848;-3.572;2023-07-13T04:43:04;98890.84;;;10.78;88.68
54554;BME280;40450;55.848;-3.572;2023-07-13T04:45:35;98889.82;;;10.79;88.64
54554;BME280;40450;55.848;-3.572;2023-07-13T04:48:04;98889.38;;;10.88;88.56
54554;BME280;40450;55.848;-3.572;2023-07-13T04:50:39;98886.68;;;10.84;88.78
54554;BME280;40450;55.848;-3.572;2023-07-13T04:53:05;98890.73;;;11.33;87.08
54554;BME280;40450;55.848;-3.572;2023-07-13T04:55:35;98894.47;;;11.08;88.11
54554;BME280;40450;55.848;-3.572;2023-07-13T04:58:06;98895.51;;;11.53;87.17
54554;BME280;40450;55.848;-3.572;2023-07-13T05:00:35;98891.56;;;11.89;85.70
54554;BME280;40450;55.848;-3.572;2023-07-13T05:03:06;98891.07;;;12.49;84.03
54554;BME280;40450;55.848;-3.572;2023-07-13T05:05:41;98891.76;;;13.18;83.88
54554;BME280;40450;55.848;-3.572;2023-07-13T05:08:08;98889.53;;;13.54;81.69
54554;BME280;40450;55.848;-3.572;2023-07-13T05:10:37;98890.77;;;13.31;80.84
54554;BME280;40450;55.848;-3.572;2023-07-13T05:13:08;98894.95;;;12.90;81.76
54554;BME280;40450;55.848;-3.572;2023-07-13T05:15:38;98898.83;;;12.68;82.47
54554;BME280;40450;55.848;-3.572;2023-07-13T05:18:08;98904.26;;;12.09;84.36
54554;BME280;40450;55.848;-3.572;2023-07-13T05:20:39;98909.86;;;11.64;86.21
54554;BME280;40450;55.848;-3.572;2023-07-13T05:23:09;98909.97;;;11.80;85.84
54554;BME280;40450;55.848;-3.572;2023-07-13T05:25:39;98911.64;;;11.91;85.77
54554;BME280;40450;55.848;-3.572;2023-07-13T05:28:10;98909.79;;;11.19;87.89
54554;BME280;40450;55.848;-3.572;2023-07-13T05:30:45;98910.30;;;11.36;87.96
54554;BME280;40450;55.848;-3.572;2023-07-13T05:33:10;98910.67;;;11.18;88.68
54554;BME280;40450;55.848;-3.572;2023-07-13T05:35:41;98914.99;;;11.48;87.96
54554;BME280;40450;55.848;-3.572;2023-07-13T05:38:11;98920.06;;;11.35;88.46
54554;BME280;40450;55.848;-3.572;2023-07-13T05:40:45;98923.60;;;11.12;89.48
54554;BME280;40450;55.848;-3.572;2023-07-13T05:43:12;98924.09;;;10.76;90.81
54554;BME280;40450;55.848;-3.572;2023-07-13T05:45:42;98929.55;;;10.59;91.68
54554;BME280;40450;55.848;-3.572;2023-07-13T05:48:13;98928.12;;;11.36;90.24
54554;BME280;40450;55.848;-3.572;2023-07-13T05:50:43;98928.25;;;11.13;91.15
54554;BME280;40450;55.848;-3.572;2023-07-13T05:53:13;98934.82;;;11.34;90.12
54554;BME280;40450;55.848;-3.572;2023-07-13T05:55:44;98934.93;;;11.48;90.00
54554;BME280;40450;55.848;-3.572;2023-07-13T05:58:15;98935.89;;;12.37;88.58
54554;BME280;40450;55.848;-3.572;2023-07-13T06:00:44;98939.27;;;12.79;86.52
54554;BME280;40450;55.848;-3.572;2023-07-13T06:03:15;98938.24;;;13.44;85.54
54554;BME280;40450;55.848;-3.572;2023-07-13T06:05:46;98941.33;;;13.58;83.80
54554;BME280;40450;55.848;-3.572;2023-07-13T06:08:16;98938.40;;;13.30;84.66
54554;BME280;40450;55.848;-3.572;2023-07-13T06:10:46;98934.15;;;13.07;85.22
54554;BME280;40450;55.848;-3.572;2023-07-13T06:13:16;98936.83;;;12.81;86.24
54554;BME280;40450;55.848;-3.572;2023-07-13T06:15:49;98936.03;;;13.82;84.66
54554;BME280;40450;55.848;-3.572;2023-07-13T06:18:17;98938.15;;;13.82;83.79
54554;BME280;40450;55.848;-3.572;2023-07-13T06:20:52;98939.38;;;14.04;83.40
54554;BME280;40450;55.848;-3.572;2023-07-13T06:23:18;98945.28;;;13.86;83.13
54554;BME280;40450;55.848;-3.572;2023-07-13T06:25:48;98949.48;;;12.93;85.74
54554;BME280;40450;55.848;-3.572;2023-07-13T06:28:19;98949.49;;;13.37;84.38
54554;BME280;40450;55.848;-3.572;2023-07-13T06:30:49;98951.58;;;13.56;84.74
54554;BME280;40450;55.848;-3.572;2023-07-13T06:33:19;98952.92;;;14.05;82.89
54554;BME280;40450;55.848;-3.572;2023-07-13T06:35:49;98952.81;;;14.63;81.91
54554;BME280;40450;55.848;-3.572;2023-07-13T06:38:19;98949.46;;;15.41;80.90
54554;BME280;40450;55.848;-3.572;2023-07-13T06:40:50;98954.77;;;14.88;80.36
54554;BME280;40450;55.848;-3.572;2023-07-13T06:43:21;98958.73;;;14.83;80.45
54554;BME280;40450;55.848;-3.572;2023-07-13T06:45:53;98959.29;;;14.76;81.01
54554;BME280;40450;55.848;-3.572;2023-07-13T06:48:22;98958.86;;;14.62;80.98
54554;BME280;40450;55.848;-3.572;2023-07-13T06:50:52;98958.65;;;14.93;80.18
54554;BME280;40450;55.848;-3.572;2023-07-13T06:53:23;98959.28;;;13.80;82.22
54554;BME280;40450;55.848;-3.572;2023-07-13T06:55:52;98960.70;;;14.28;81.88
54554;BME280;40450;55.848;-3.572;2023-07-13T06:58:23;98952.21;;;14.94;80.50
54554;BME280;40450;55.848;-3.572;2023-07-13T07:00:53;98949.75;;;15.22;78.46
54554;BME280;40450;55.848;-3.572;2023-07-13T07:03:23;98955.73;;;14.89;79.15
54554;BME280;40450;55.848;-3.572;2023-07-13T07:05:54;98954.06;;;15.77;77.41
54554;BME280;40450;55.848;-3.572;2023-07-13T07:08:24;98956.09;;;15.56;77.28
54554;BME280;40450;55.848;-3.572;2023-07-13T07:10:54;98959.90;;;15.59;77.95
54554;BME280;40450;55.848;-3.572;2023-07-13T07:13:25;98956.60;;;15.51;77.14
54554;BME280;40450;55.848;-3.572;2023-07-13T07:15:55;98957.08;;;15.45;77.67
54554;BME280;40450;55.848;-3.572;2023-07-13T07:18:25;98960.22;;;16.49;77.05
54554;BME280;40450;55.848;-3.572;2023-07-13T07:20:56;98958.85;;;16.16;74.87
54554;BME280;40450;55.848;-3.572;2023-07-13T07:23:26;98964.53;;;16.52;74.69
54554;BME280;40450;55.848;-3.572;2023-07-13T07:25:57;98961.39;;;16.75;73.30
54554;BME280;40450;55.848;-3.572;2023-07-13T07:28:27;98971.72;;;16.15;75.82
54554;BME280;40450;55.848;-3.572;2023-07-13T07:30:58;98970.61;;;16.16;74.17
54554;BME280;40450;55.848;-3.572;2023-07-13T07:33:27;98971.05;;;16.17;73.06
54554;BME280;40450;55.848;-3.572;2023-07-13T07:35:58;98969.24;;;16.65;73.42
54554;BME280;40450;55.848;-3.572;2023-07-13T07:38:28;98970.49;;;15.60;75.52
54554;BME280;40450;55.848;-3.572;2023-07-13T07:41:03;98968.48;;;16.10;74.50
54554;BME280;40450;55.848;-3.572;2023-07-13T07:43:29;98965.74;;;16.71;72.81
54554;BME280;40450;55.848;-3.572;2023-07-13T07:45:59;98968.15;;;16.60;72.30
54554;BME280;40450;55.848;-3.572;2023-07-13T07:48:30;98964.70;;;17.46;71.47
54554;BME280;40450;55.848;-3.572;2023-07-13T07:51:00;98968.43;;;16.32;72.90
54554;BME280;40450;55.848;-3.572;2023-07-13T07:53:30;98967.63;;;15.94;72.92
54554;BME280;40450;55.848;-3.572;2023-07-13T07:56:01;98966.87;;;16.18;74.36
54554;BME280;40450;55.848;-3.572;2023-07-13T07:58:31;98968.17;;;16.64;72.86
54554;BME280;40450;55.848;-3.572;2023-07-13T08:01:04;98972.41;;;16.38;72.87
54554;BME280;40450;55.848;-3.572;2023-07-13T08:03:32;98967.73;;;16.84;72.50
54554;BME280;40450;55.848;-3.572;2023-07-13T08:06:02;98966.31;;;16.97;72.34
54554;BME280;40450;55.848;-3.572;2023-07-13T08:08:33;98971.91;;;16.71;70.74
54554;BME280;40450;55.848;-3.572;2023-07-13T08:11:04;98964.67;;;17.30;69.42
54554;BME280;40450;55.848;-3.572;2023-07-13T08:13:33;98966.61;;;17.45;68.74
54554;BME280;40450;55.848;-3.572;2023-07-13T08:16:04;98968.83;;;17.10;68.35
54554;BME280;40450;55.848;-3.572;2023-07-13T08:18:34;98967.94;;;17.31;67.71
54554;BME280;40450;55.848;-3.572;2023-07-13T08:21:05;98968.31;;;16.79;69.54
54554;BME280;40450;55.848;-3.572;2023-07-13T08:23:35;98970.64;;;17.01;70.16
54554;BME280;40450;55.848;-3.572;2023-07-13T08:26:05;98974.74;;;16.48;71.56
54554;BME280;40450;55.848;-3.572;2023-07-13T08:28:35;98974.71;;;16.45;72.41
54554;BME280;40450;55.848;-3.572;2023-07-13T08:31:07;98974.03;;;16.24;73.07
54554;BME280;40450;55.848;-3.572;2023-07-13T08:33:36;98977.03;;;16.11;73.70
54554;BME280;40450;55.848;-3.572;2023-07-13T08:36:06;98983.15;;;16.58;72.84
54554;BME280;40450;55.848;-3.572;2023-07-13T08:38:36;98980.99;;;15.84;75.46
54554;BME280;40450;55.848;-3.572;2023-07-13T08:41:12;98983.85;;;15.87;75.43
54554;BME280;40450;55.848;-3.572;2023-07-13T08:43:38;98977.90;;;16.05;73.95
54554;BME280;40450;55.848;-3.572;2023-07-13T08:46:13;98984.17;;;16.45;73.46
54554;BME280;40450;55.848;-3.572;2023-07-13T08:48:41;98984.19;;;16.46;74.04
54554;BME280;40450;55.848;-3.572;2023-07-13T08:51:32;98986.95;;;16.37;74.81
54554;BME280;40450;55.848;-3.572;2023-07-13T08:53:42;98989.17;;;16.83;73.39
54554;BME280;40450;55.848;-3.572;2023-07-13T08:56:14;98990.24;;;15.96;73.89
54554;BME280;40450;55.848;-3.572;2023-07-13T08:58:40;98998.14;;;15.11;76.78
54554;BME280;40450;55.848;-3.572;2023-07-13T09:01:15;98995.39;;;15.10;77.05
54554;BME280;40450;55.848;-3.572;2023-07-13T09:03:46;98990.21;;;15.18;77.46
54554;BME280;40450;55.848;-3.572;2023-07-13T09:06:12;98993.10;;;14.71;78.47
54554;BME280;40450;55.848;-3.572;2023-07-13T09:08:51;98988.34;;;15.25;77.32
54554;BME280;40450;55.848;-3.572;2023-07-13T09:13:47;98983.00;;;15.45;76.11
54554;BME280;40450;55.848;-3.572;2023-07-13T09:16:12;98983.41;;;15.80;76.65
54554;BME280;40450;55.848;-3.572;2023-07-13T09:18:44;98984.32;;;16.83;73.73
54554;BME280;40450;55.848;-3.572;2023-07-13T09:21:15;98982.63;;;16.13;74.62
54554;BME280;40450;55.848;-3.572;2023-07-13T09:23:43;98987.11;;;16.56;72.55
54554;BME280;40450;55.848;-3.572;2023-07-13T09:26:18;98987.97;;;16.00;73.44
54554;BME280;40450;55.848;-3.572;2023-07-13T09:28:45;98995.80;;;16.81;72.45
54554;BME280;40450;55.848;-3.572;2023-07-13T09:31:17;98994.64;;;17.19;71.75
54554;BME280;40450;55.848;-3.572;2023-07-13T09:33:45;98993.67;;;16.76;71.69
54554;BME280;40450;55.848;-3.572;2023-07-13T09:36:20;98995.23;;;16.61;72.44
54554;BME280;40450;55.848;-3.572;2023-07-13T09:38:45;98994.17;;;16.87;70.65
54554;BME280;40450;55.848;-3.572;2023-07-13T09:41:23;98995.35;;;17.07;70.39
54554;BME280;40450;55.848;-3.572;2023-07-13T09:46:21;98998.28;;;17.34;69.01
54554;BME280;40450;55.848;-3.572;2023-07-13T09:48:46;98996.40;;;16.95;70.70
54554;BME280;40450;55.848;-3.572;2023-07-13T09:51:17;99000.30;;;18.52;68.00
54554;BME280;40450;55.848;-3.572;2023-07-13T09:53:47;98999.02;;;18.60;66.43
54554;BME280;40450;55.848;-3.572;2023-07-13T09:56:21;99005.45;;;18.77;65.68
54554;BME280;40450;55.848;-3.572;2023-07-13T09:58:48;99004.02;;;19.12;63.66
54554;BME280;40450;55.848;-3.572;2023-07-13T10:03:53;99014.95;;;19.26;60.89
54554;BME280;40450;55.848;-3.572;2023-07-13T10:06:20;99019.29;;;18.88;59.56
54554;BME280;40450;55.848;-3.572;2023-07-13T10:08:50;99018.08;;;18.79;61.27
54554;BME280;40450;55.848;-3.572;2023-07-13T10:11:22;99015.14;;;19.20;59.63
54554;BME280;40450;55.848;-3.572;2023-07-13T10:13:52;99018.11;;;18.89;61.71
54554;BME280;40450;55.848;-3.572;2023-07-13T10:16:20;99020.08;;;18.50;62.13
54554;BME280;40450;55.848;-3.572;2023-07-13T10:18:58;99022.31;;;18.21;63.97
54554;BME280;40450;55.848;-3.572;2023-07-13T10:21:30;99022.94;;;18.70;62.93
54554;BME280;40450;55.848;-3.572;2023-07-13T10:23:55;99018.38;;;17.72;64.47
54554;BME280;40450;55.848;-3.572;2023-07-13T10:26:32;99022.10;;;16.68;68.24
54554;BME280;40450;55.848;-3.572;2023-07-13T10:31:22;99018.12;;;16.68;68.94
54554;BME280;40450;55.848;-3.572;2023-07-13T10:33:52;99018.06;;;16.30;68.39
54554;BME280;40450;55.848;-3.572;2023-07-13T10:36:32;99014.18;;;17.10;67.08
54554;BME280;40450;55.848;-3.572;2023-07-13T10:38:54;99009.38;;;17.03;66.64
54554;BME280;40450;55.848;-3.572;2023-07-13T10:41:25;99009.58;;;16.93;65.75
54554;BME280;40450;55.848;-3.572;2023-07-13T10:43:55;99007.00;;;17.37;66.16
54554;BME280;40450;55.848;-3.572;2023-07-13T10:46:25;99007.45;;;17.84;65.38
54554;BME280;40450;55.848;-3.572;2023-07-13T10:48:57;99005.96;;;17.80;63.49
54554;BME280;40450;55.848;-3.572;2023-07-13T10:51:25;99002.26;;;17.83;63.62
54554;BME280;40450;55.848;-3.572;2023-07-13T10:56:29;99003.86;;;18.57;61.29
54554;BME280;40450;55.848;-3.572;2023-07-13T10:59:01;99006.99;;;18.06;61.89
54554;BME280;40450;55.848;-3.572;2023-07-13T11:01:26;99009.29;;;18.56;60.44
54554;BME280;40450;55.848;-3.572;2023-07-13T11:04:01;99013.75;;;18.36;60.14
54554;BME280;40450;55.848;-3.572;2023-07-13T11:06:37;99009.96;;;18.41;61.03
54554;BME280;40450;55.848;-3.572;2023-07-13T11:08:58;99008.85;;;18.53;60.65
54554;BME280;40450;55.848;-3.572;2023-07-13T11:11:35;99008.20;;;17.44;64.12
54554;BME280;40450;55.848;-3.572;2023-07-13T11:13:59;99006.75;;;17.67;64.81
54554;BME280;40450;55.848;-3.572;2023-07-13T11:16:34;99010.11;;;18.32;63.51
54554;BME280;40450;55.848;-3.572;2023-07-13T11:21:29;99012.52;;;19.04;61.75
54554;BME280;40450;55.848;-3.572;2023-07-13T11:24:04;99015.43;;;18.34;62.25
54554;BME280;40450;55.848;-3.572;2023-07-13T11:26:37;99016.34;;;18.15;63.43
54554;BME280;40450;55.848;-3.572;2023-07-13T11:29:07;99011.66;;;18.73;62.05
54554;BME280;40450;55.848;-3.572;2023-07-13T11:31:33;99010.74;;;17.46;63.27
54554;BME280;40450;55.848;-3.572;2023-07-13T11:34:00;99007.53;;;16.94;67.49
54554;BME280;40450;55.848;-3.572;2023-07-13T11:36:35;99010.86;;;16.92;67.86
54554;BME280;40450;55.848;-3.572;2023-07-13T11:39:03;99011.90;;;16.53;69.24
54554;BME280;40450;55.848;-3.572;2023-07-13T11:41:33;99015.70;;;17.78;66.15
54554;BME280;40450;55.848;-3.572;2023-07-13T11:44:10;99017.07;;;17.82;65.58
54554;BME280;40450;55.848;-3.572;2023-07-13T11:46:31;99015.30;;;18.12;63.91
54554;BME280;40450;55.848;-3.572;2023-07-13T11:49:05;99020.93;;;17.80;63.62
54554;BME280;40450;55.848;-3.572;2023-07-13T11:51:34;99018.83;;;16.34;70.02
54554;BME280;40450;55.848;-3.572;2023-07-13T11:54:05;99020.68;;;16.62;69.11
54554;BME280;40450;55.848;-3.572;2023-07-13T11:56:33;99018.48;;;16.19;71.64
54554;BME280;40450;55.848;-3.572;2023-07-13T11:59:06;99020.18;;;16.95;69.83
54554;BME280;40450;55.848;-3.572;2023-07-13T12:01:34;99015.12;;;17.02;70.53
54554;BME280;40450;55.848;-3.572;2023-07-13T12:04:04;99015.55;;;17.16;71.29
54554;BME280;40450;55.848;-3.572;2023-07-13T12:06:35;99021.25;;;16.81;70.79
54554;BME280;40450;55.848;-3.572;2023-07-13T12:09:12;99015.05;;;16.94;70.57
54554;BME280;40450;55.848;-3.572;2023-07-13T12:11:35;99014.83;;;17.63;69.01
54554;BME280;40450;55.848;-3.572;2023-07-13T12:14:05;99016.71;;;17.26;68.25
54554;BME280;40450;55.848;-3.572;2023-07-13T12:16:35;99025.67;;;16.74;71.04
54554;BME280;40450;55.848;-3.572;2023-07-13T12:19:16;99023.42;;;16.70;76.59
54554;BME280;40450;55.848;-3.572;2023-07-13T12:21:38;99022.22;;;17.50;74.72
54554;BME280;40450;55.848;-3.572;2023-07-13T12:24:13;99021.44;;;18.46;70.04
54554;BME280;40450;55.848;-3.572;2023-07-13T12:26:36;99019.24;;;17.83;69.09
54554;BME280;40450;55.848;-3.572;2023-07-13T12:29:07;99023.99;;;17.78;69.35
54554;BME280;40450;55.848;-3.572;2023-07-13T12:31:41;99021.57;;;18.30;68.02
54554;BME280;40450;55.848;-3.572;2023-07-13T12:34:09;99021.50;;;18.18;67.70
54554;BME280;40450;55.848;-3.572;2023-07-13T12:36:40;99017.56;;;18.12;67.76
54554;BME280;40450;55.848;-3.572;2023-07-13T12:39:15;99014.81;;;17.29;68.62
54554;BME280;40450;55.848;-3.572;2023-07-13T12:41:38;99014.25;;;18.39;67.12
54554;BME280;40450;55.848;-3.572;2023-07-13T12:44:11;99015.46;;;18.52;65.06
54554;BME280;40450;55.848;-3.572;2023-07-13T12:46:39;99015.95;;;18.98;64.90
54554;BME280;40450;55.848;-3.572;2023-07-13T12:49:14;99014.58;;;18.78;66.42
54554;BME280;40450;55.848;-3.572;2023-07-13T12:51:39;99014.61;;;19.43;63.51
54554;BME280;40450;55.848;-3.572;2023-07-13T12:54:16;99010.88;;;19.29;63.79
54554;BME280;40450;55.848;-3.572;2023-07-13T12:56:40;99017.61;;;18.88;65.30
54554;BME280;40450;55.848;-3.572;2023-07-13T12:59:18;99009.76;;;18.92;63.66
54554;BME280;40450;55.848;-3.572;2023-07-13T13:01:41;99010.12;;;18.82;63.89
54554;BME280;40450;55.848;-3.572;2023-07-13T13:04:11;99004.72;;;19.56;62.40
54554;BME280;40450;55.848;-3.572;2023-07-13T13:06:41;99009.25;;;19.67;62.88
54554;BME280;40450;55.848;-3.572;2023-07-13T13:09:13;99004.06;;;19.46;61.90
54554;BME280;40450;55.848;-3.572;2023-07-13T13:11:42;99015.04;;;18.92;62.87
54554;BME280;40450;55.848;-3.572;2023-07-13T13:14:12;99013.01;;;19.21;63.94
54554;BME280;40450;55.848;-3.572;2023-07-13T13:16:47;99017.96;;;19.17;61.95
54554;BME280;40450;55.848;-3.572;2023-07-13T13:19:20;99023.77;;;18.89;60.82
54554;BME280;40450;55.848;-3.572;2023-07-13T13:21:44;99013.55;;;18.97;63.20
54554;BME280;40450;55.848;-3.572;2023-07-13T13:24:15;99007.19;;;19.43;62.65
54554;BME280;40450;55.848;-3.572;2023-07-13T13:26:44;99020.48;;;18.86;63.88
54554;BME280;40450;55.848;-3.572;2023-07-13T13:29:16;99012.23;;;19.75;60.42